createdAt,value
2018-07-14T00:01:31.797Z,7.03
2018-07-14T00:03:59.701Z,6.57
2018-07-14T00:06:27.637Z,6.43
2018-07-14T00:08:55.591Z,6.73
2018-07-14T00:11:23.516Z,6.77
2018-07-14T00:13:51.437Z,7.40
2018-07-14T00:16:19.366Z,7.60
2018-07-14T00:18:47.273Z,7.23
2018-07-14T00:21:15.197Z,6.77
2018-07-14T00:23:43.105Z,7.10
2018-07-14T00:26:11.049Z,7.23
2018-07-14T00:28:38.977Z,7.30
2018-07-14T00:31:06.897Z,7.70
2018-07-14T00:33:34.821Z,6.97
2018-07-14T00:36:02.757Z,6.93
2018-07-14T00:38:30.670Z,7.70
2018-07-14T00:40:58.613Z,7.37
2018-07-14T00:43:26.562Z,7.90
2018-07-14T00:45:54.470Z,8.40
2018-07-14T00:48:22.402Z,7.83
2018-07-14T00:50:50.338Z,7.73
2018-07-14T00:53:18.254Z,7.97
2018-07-14T00:55:46.166Z,8.13
2018-07-14T00:58:14.130Z,8.37
2018-07-14T01:00:42.090Z,7.50
2018-07-14T01:03:10.062Z,7.67
2018-07-14T01:05:38.159Z,8.10
2018-07-14T01:08:06.088Z,8.33
2018-07-14T01:10:34.071Z,8.40
2018-07-14T01:13:02.004Z,8.20
2018-07-14T01:15:29.923Z,8.77
2018-07-14T01:17:57.843Z,7.93
2018-07-14T01:20:25.804Z,8.50
2018-07-14T01:22:53.735Z,8.67
2018-07-14T01:25:21.706Z,8.80
2018-07-14T01:27:49.618Z,8.50
2018-07-14T01:30:17.534Z,8.40
2018-07-14T01:32:45.458Z,8.67
2018-07-14T01:35:13.382Z,8.37
2018-07-14T01:37:41.346Z,8.33
2018-07-14T01:40:09.287Z,8.87
2018-07-14T01:42:37.210Z,8.70
2018-07-14T01:45:05.272Z,9.17
2018-07-14T01:47:33.291Z,8.70
2018-07-14T01:50:01.244Z,8.87
2018-07-14T01:52:29.186Z,8.97
2018-07-14T01:54:57.112Z,9.30
2018-07-14T01:57:25.043Z,9.60
2018-07-14T01:59:52.963Z,9.70
2018-07-14T02:02:20.883Z,10.30
2018-07-14T02:04:48.866Z,9.40
2018-07-14T02:07:16.795Z,9.77
2018-07-14T02:09:44.719Z,10.30
2018-07-14T02:12:12.642Z,9.73
2018-07-14T02:14:40.632Z,9.70
2018-07-14T02:17:08.579Z,9.97
2018-07-14T02:19:36.523Z,10.80
2018-07-14T02:22:04.436Z,10.43
2018-07-14T02:24:32.371Z,11.00
2018-07-14T02:27:00.344Z,11.50
2018-07-14T02:29:28.348Z,12.10
2018-07-14T02:31:56.272Z,10.57
2018-07-14T02:34:24.260Z,11.13
2018-07-14T02:36:52.416Z,11.93
2018-07-14T02:39:20.384Z,11.67
2018-07-14T02:41:48.315Z,11.73
2018-07-14T02:44:16.245Z,11.97
2018-07-14T02:46:44.152Z,12.37
2018-07-14T02:49:12.139Z,12.33
2018-07-14T02:51:40.095Z,11.63
2018-07-14T02:54:08.044Z,12.20
2018-07-14T02:56:35.988Z,11.70
2018-07-14T02:59:03.941Z,11.33
2018-07-14T03:01:31.860Z,11.80
2018-07-14T03:03:59.825Z,12.10
2018-07-14T03:06:27.753Z,12.07
2018-07-14T03:08:55.714Z,12.47
2018-07-14T03:11:23.641Z,12.33
2018-07-14T03:13:51.556Z,11.47
2018-07-14T03:16:19.469Z,11.77
2018-07-14T03:18:47.425Z,12.87
2018-07-14T03:21:15.382Z,12.03
2018-07-14T03:23:43.300Z,12.70
2018-07-14T03:26:11.256Z,13.20
2018-07-14T03:28:39.165Z,12.57
2018-07-14T03:31:07.101Z,13.03
2018-07-14T03:33:35.077Z,12.43
2018-07-14T03:36:03.001Z,13.33
2018-07-14T03:38:30.931Z,12.83
2018-07-14T03:40:59.201Z,13.13
2018-07-14T03:43:27.145Z,12.97
2018-07-14T03:45:55.085Z,13.13
2018-07-14T03:48:23.045Z,13.80
2018-07-14T03:50:50.982Z,14.67
2018-07-14T03:53:19.073Z,13.73
2018-07-14T03:55:47.014Z,14.47
2018-07-14T03:58:14.925Z,14.17
2018-07-14T04:00:42.841Z,14.07
2018-07-14T04:03:10.809Z,14.07
2018-07-14T04:05:38.732Z,13.93
2018-07-14T04:08:06.660Z,13.73
2018-07-14T04:10:34.588Z,13.73
2018-07-14T04:13:02.517Z,14.07
2018-07-14T04:15:30.436Z,15.17
2018-07-14T04:18:03.885Z,15.30
2018-07-14T04:20:32.360Z,15.97
2018-07-14T04:23:00.747Z,14.30
2018-07-14T04:25:28.692Z,15.80
2018-07-14T04:27:56.873Z,16.00
2018-07-14T04:30:24.873Z,15.63
2018-07-14T04:32:52.917Z,15.33
2018-07-14T04:35:20.876Z,16.87
2018-07-14T04:37:48.792Z,15.60
2018-07-14T04:40:16.744Z,15.80
2018-07-14T04:42:44.656Z,16.33
2018-07-14T04:45:12.629Z,16.43
2018-07-14T04:47:40.633Z,16.23
2018-07-14T04:50:08.578Z,17.20
2018-07-14T04:52:36.732Z,15.67
2018-07-14T04:55:04.962Z,15.53
2018-07-14T04:57:32.877Z,15.97
2018-07-14T05:00:00.801Z,15.63
2018-07-14T05:02:28.824Z,18.77
2018-07-14T05:04:56.774Z,17.67
2018-07-14T05:07:24.681Z,17.77
2018-07-14T05:09:52.774Z,16.90
2018-07-14T05:12:20.726Z,17.07
2018-07-14T05:14:48.645Z,17.50
2018-07-14T05:17:16.592Z,18.40
2018-07-14T05:19:44.546Z,16.67
2018-07-14T05:22:12.505Z,16.93
2018-07-14T05:24:40.490Z,17.00
2018-07-14T05:27:08.481Z,16.63
2018-07-14T05:29:36.509Z,16.70
2018-07-14T05:32:04.465Z,15.83
2018-07-14T05:34:32.402Z,16.63
2018-07-14T05:37:00.345Z,16.37
2018-07-14T05:39:28.328Z,15.87
2018-07-14T05:41:56.299Z,14.87
2018-07-14T05:44:24.261Z,15.77
2018-07-14T05:46:52.254Z,14.80
2018-07-14T05:49:20.230Z,14.70
2018-07-14T05:51:48.165Z,13.80
2018-07-14T05:54:16.105Z,13.63
2018-07-14T05:56:44.028Z,14.43
2018-07-14T05:59:11.973Z,13.80
2018-07-14T06:01:40.044Z,13.47
2018-07-14T06:04:08.058Z,14.17
2018-07-14T06:06:35.997Z,13.10
2018-07-14T06:09:04.813Z,13.47
2018-07-14T06:11:33.797Z,13.70
2018-07-14T06:14:01.718Z,13.43
2018-07-14T06:16:29.638Z,13.20
2018-07-14T06:18:57.585Z,13.47
2018-07-14T06:21:25.541Z,13.77
2018-07-14T06:23:53.505Z,13.23
2018-07-14T06:26:21.425Z,13.77
2018-07-14T06:28:49.386Z,13.50
2018-07-14T06:31:17.388Z,13.83
2018-07-14T06:33:45.355Z,12.83
2018-07-14T06:36:13.278Z,17.90
2018-07-14T06:38:41.279Z,13.87
2018-07-14T06:41:09.214Z,13.53
2018-07-14T06:43:37.147Z,13.40
2018-07-14T06:46:05.243Z,13.67
2018-07-14T06:48:33.178Z,13.60
2018-07-14T06:51:01.118Z,13.70
2018-07-14T06:53:29.067Z,12.77
2018-07-14T06:55:56.978Z,12.77
2018-07-14T06:58:24.938Z,12.27
2018-07-14T07:00:52.886Z,13.07
2018-07-14T07:03:20.901Z,12.07
2018-07-14T07:05:48.779Z,12.60
2018-07-14T07:08:16.996Z,11.60
2018-07-14T07:10:45.199Z,11.70
2018-07-14T07:13:13.363Z,11.87
2018-07-14T07:15:41.587Z,10.20
2018-07-14T07:18:09.770Z,10.60
2018-07-14T07:20:37.955Z,11.13
2018-07-14T07:23:06.122Z,9.57
2018-07-14T07:25:34.295Z,9.77
2018-07-14T07:28:02.531Z,10.37
2018-07-14T07:30:30.715Z,9.10
2018-07-14T07:32:58.933Z,10.80
2018-07-14T07:35:27.091Z,9.60
2018-07-14T07:37:55.252Z,9.77
2018-07-14T07:40:23.440Z,9.20
2018-07-14T07:42:51.615Z,8.87
2018-07-14T07:45:19.843Z,9.63
2018-07-14T07:47:48.037Z,10.37
2018-07-14T07:50:16.183Z,9.97
2018-07-14T07:52:44.410Z,9.63
2018-07-14T07:55:12.587Z,9.37
2018-07-14T07:57:40.772Z,9.30
2018-07-14T08:00:09.022Z,8.97
2018-07-14T08:02:37.211Z,7.87
2018-07-14T08:05:05.436Z,8.27
2018-07-14T08:07:33.654Z,9.60
2018-07-14T08:10:01.830Z,7.90
2018-07-14T08:12:29.997Z,8.43
2018-07-14T08:14:58.177Z,8.57
2018-07-14T08:17:26.326Z,8.33
2018-07-14T08:19:54.490Z,7.30
2018-07-14T08:22:22.666Z,6.93
2018-07-14T08:24:50.838Z,6.43
2018-07-14T08:27:19.139Z,6.77
2018-07-14T08:29:47.303Z,6.10
2018-07-14T08:32:15.447Z,6.30
2018-07-14T08:34:43.614Z,5.97
2018-07-14T08:37:11.786Z,6.77
2018-07-14T08:39:39.966Z,6.50
2018-07-14T08:42:08.662Z,7.57
2018-07-14T08:44:37.110Z,6.67
2018-07-14T08:47:05.583Z,6.90
2018-07-14T08:49:33.766Z,6.60
2018-07-14T08:52:02.139Z,6.30
2018-07-14T08:54:30.307Z,6.87
2018-07-14T14:30:04.416Z,3.10
2018-07-14T14:32:32.576Z,3.00
2018-07-14T14:35:00.748Z,2.55
2018-07-14T14:37:29.080Z,2.83
2018-07-14T14:39:57.269Z,3.10
2018-07-14T14:42:25.428Z,2.80
2018-07-14T14:44:53.728Z,2.70
2018-07-14T14:47:21.896Z,2.95
2018-07-14T14:49:50.080Z,3.08
2018-07-14T14:52:18.301Z,2.80
2018-07-14T14:54:46.276Z,2.65
2018-07-14T14:57:14.461Z,3.08
2018-07-14T14:59:42.696Z,2.83
2018-07-14T15:02:10.914Z,2.83
2018-07-14T15:04:39.075Z,2.50
2018-07-14T15:07:07.256Z,2.33
2018-07-14T15:09:35.417Z,2.55
2018-07-14T15:12:03.632Z,2.40
2018-07-14T15:14:31.913Z,2.50
2018-07-14T15:17:00.086Z,2.52
2018-07-14T15:19:28.240Z,2.50
2018-07-14T15:21:56.437Z,2.65
2018-07-14T15:24:24.685Z,2.40
2018-07-14T15:26:52.836Z,3.30
2018-07-14T15:29:21.003Z,2.50
2018-07-14T15:31:49.224Z,2.90
2018-07-14T15:34:17.425Z,2.50
2018-07-14T15:36:45.597Z,2.30
2018-07-14T15:39:14.010Z,2.40
2018-07-14T15:41:42.380Z,2.30
2018-07-14T15:44:11.233Z,2.08
2018-07-14T15:46:41.061Z,2.42
2018-07-14T15:49:09.249Z,2.20
2018-07-14T15:51:37.477Z,2.00
2018-07-14T15:54:05.673Z,2.20
2018-07-14T15:56:33.833Z,2.70
2018-07-14T15:59:02.014Z,2.33
2018-07-14T16:01:30.297Z,2.43
2018-07-14T16:03:58.504Z,2.53
2018-07-14T16:06:26.769Z,2.50
2018-07-14T16:08:55.042Z,2.60
2018-07-14T16:11:23.225Z,2.60
2018-07-14T16:13:51.450Z,3.60
2018-07-14T16:16:19.662Z,2.45
2018-07-14T16:18:47.834Z,2.40
2018-07-14T16:21:16.014Z,2.50
2018-07-14T16:23:44.181Z,2.53
2018-07-14T16:26:12.106Z,2.27
2018-07-14T16:28:40.395Z,2.20
2018-07-14T16:31:08.608Z,2.40
2018-07-14T16:33:36.794Z,2.10
2018-07-14T16:36:04.979Z,2.40
2018-07-14T16:38:33.173Z,2.03
2018-07-14T16:41:01.339Z,2.30
2018-07-14T16:43:29.629Z,1.90
2018-07-14T16:45:58.359Z,2.20
2018-07-14T16:48:26.695Z,2.20
2018-07-14T16:50:54.883Z,2.37
2018-07-14T16:53:23.059Z,2.23
2018-07-14T16:55:51.580Z,1.90
2018-07-14T16:58:19.753Z,2.10
2018-07-14T17:00:48.115Z,2.07
2018-07-14T17:03:16.338Z,1.43
2018-07-14T17:05:44.640Z,2.00
2018-07-14T17:08:12.799Z,1.67
2018-07-14T17:10:41.044Z,1.60
2018-07-14T17:13:09.320Z,2.00
2018-07-14T17:15:37.452Z,2.10
2018-07-14T17:18:05.807Z,2.27
2018-07-14T17:20:33.963Z,1.90
2018-07-14T17:23:02.196Z,1.93
2018-07-14T17:25:30.563Z,1.87
2018-07-14T17:27:58.919Z,2.30
2018-07-14T17:30:27.072Z,3.87
2018-07-14T17:32:55.651Z,2.20
2018-07-14T17:35:23.886Z,1.80
2018-07-14T17:37:52.247Z,2.00
2018-07-14T17:40:20.411Z,2.27
2018-07-14T17:42:48.560Z,1.83
2018-07-14T17:45:16.620Z,1.80
2018-07-14T17:47:45.057Z,2.00
2018-07-14T17:50:13.211Z,1.67
2018-07-14T17:52:41.435Z,1.70
2018-07-14T17:55:09.596Z,1.90
2018-07-14T17:57:38.302Z,1.70
2018-07-14T18:00:06.477Z,2.00
2018-07-14T18:02:35.188Z,2.57
2018-07-14T18:05:03.388Z,1.93
2018-07-14T18:07:31.569Z,2.13
2018-07-14T18:09:59.724Z,1.70
2018-07-14T18:12:28.036Z,1.53
2018-07-14T18:14:56.175Z,1.83
2018-07-14T18:17:24.366Z,2.00
2018-07-14T18:19:52.605Z,1.70
2018-07-14T18:22:20.773Z,1.83
2018-07-14T18:24:48.944Z,1.80
2018-07-14T18:27:17.125Z,2.40
2018-07-14T18:29:45.337Z,1.60
2018-07-14T18:32:13.944Z,1.80
2018-07-14T18:34:42.584Z,1.80
2018-07-14T18:37:10.794Z,1.50
2018-07-14T18:39:38.968Z,1.50
2018-07-14T18:42:07.222Z,1.40
2018-07-14T18:44:35.473Z,1.77
2018-07-14T18:47:03.695Z,1.80
2018-07-14T18:49:31.970Z,1.60
2018-07-14T18:52:00.523Z,1.87
2018-07-14T18:54:28.696Z,1.70
2018-07-14T18:56:56.945Z,1.77
2018-07-14T18:59:25.120Z,1.60
2018-07-14T19:01:53.309Z,1.93
2018-07-14T19:04:22.398Z,1.80
2018-07-14T19:06:50.553Z,1.57
2018-07-14T19:09:18.721Z,1.90
2018-07-14T19:11:46.953Z,1.80
2018-07-14T19:14:15.116Z,1.77
2018-07-14T19:16:43.267Z,1.90
2018-07-14T19:19:11.458Z,1.80
2018-07-14T19:21:39.664Z,1.77
2018-07-14T19:24:08.069Z,2.10
2018-07-14T19:26:36.371Z,1.90
2018-07-14T19:29:04.389Z,1.90
2018-07-14T19:31:32.574Z,2.40
2018-07-14T19:34:00.873Z,2.23
2018-07-14T19:36:29.117Z,2.30
2018-07-14T19:38:57.297Z,2.13
2018-07-14T19:41:25.477Z,2.27
2018-07-14T19:43:53.693Z,1.77
2018-07-14T19:46:21.994Z,1.57
2018-07-14T19:48:50.309Z,1.90
2018-07-14T19:51:18.582Z,2.20
2018-07-14T19:53:46.801Z,2.10
2018-07-14T19:56:15.094Z,1.93
2018-07-14T19:58:42.946Z,3.87
2018-07-14T20:01:11.201Z,1.90
2018-07-14T20:03:39.382Z,2.40
2018-07-14T20:06:07.765Z,6.20
2018-07-14T20:08:35.990Z,2.07
2018-07-14T20:11:04.174Z,2.50
2018-07-14T20:13:32.339Z,2.13
2018-07-14T20:16:00.646Z,1.67
2018-07-14T20:18:28.846Z,1.90
2018-07-14T20:20:57.011Z,2.20
2018-07-14T20:23:25.274Z,2.10
2018-07-14T20:25:53.446Z,1.90
2018-07-14T20:28:21.626Z,2.03
2018-07-14T20:30:49.906Z,1.83
2018-07-14T20:33:18.139Z,1.90
2018-07-14T20:35:46.322Z,2.00
2018-07-14T20:38:14.596Z,2.03
2018-07-14T20:40:42.791Z,1.87
2018-07-14T20:43:10.946Z,1.87
2018-07-14T20:45:39.121Z,2.10
2018-07-14T20:48:07.317Z,1.97
2018-07-14T20:50:39.022Z,2.20
2018-07-14T20:53:07.247Z,1.93
2018-07-14T20:55:35.490Z,2.60
2018-07-14T20:58:03.664Z,2.30
2018-07-14T21:00:31.873Z,2.30
2018-07-14T21:03:00.020Z,2.30
2018-07-14T21:05:28.182Z,2.60
2018-07-14T21:07:56.370Z,2.40
2018-07-14T21:10:24.527Z,2.47
2018-07-14T21:12:53.579Z,2.10
2018-07-14T21:15:21.787Z,1.67
2018-07-14T21:17:49.938Z,2.10
2018-07-14T21:20:18.120Z,1.80
2018-07-14T21:22:46.459Z,3.80
2018-07-14T21:25:14.620Z,1.90
2018-07-14T21:27:42.778Z,2.10
2018-07-14T21:30:11.471Z,1.67
2018-07-14T21:32:39.627Z,1.73
2018-07-14T21:35:07.806Z,2.07
2018-07-14T21:37:36.680Z,1.90
2018-07-14T21:40:04.901Z,1.90
2018-07-14T21:42:33.051Z,1.40
2018-07-14T21:45:01.487Z,1.50
2018-07-14T21:47:29.660Z,2.13
2018-07-14T21:49:57.827Z,1.77
2018-07-14T21:52:26.011Z,2.20
2018-07-14T21:54:53.924Z,1.70
2018-07-14T21:57:22.207Z,1.97
2018-07-14T21:59:50.137Z,1.50
2018-07-14T22:02:18.092Z,1.60
2018-07-14T22:04:46.075Z,2.03
2018-07-14T22:07:14.023Z,2.10
2018-07-14T22:09:41.932Z,1.83
2018-07-14T22:12:10.045Z,2.03
2018-07-14T22:14:37.992Z,1.97
2018-07-14T22:17:05.940Z,2.30
2018-07-14T22:19:33.843Z,2.80
2018-07-14T22:22:01.779Z,2.20
2018-07-14T22:24:29.687Z,2.20
2018-07-14T22:26:57.604Z,2.60
2018-07-14T22:29:25.591Z,2.30
2018-07-14T22:31:53.636Z,2.00
2018-07-14T22:34:21.556Z,2.67
2018-07-14T22:36:49.484Z,2.53
2018-07-14T22:39:17.388Z,2.43
2018-07-14T22:41:47.153Z,2.50
2018-07-14T22:44:15.130Z,2.60
2018-07-14T22:46:43.068Z,2.30
2018-07-14T22:49:10.989Z,2.40
2018-07-14T22:51:38.945Z,2.30
2018-07-14T22:54:08.508Z,2.70
2018-07-14T22:56:36.488Z,2.60
2018-07-14T22:59:04.816Z,2.77
2018-07-14T23:01:33.385Z,2.90
2018-07-14T23:04:01.686Z,2.70
2018-07-14T23:06:29.660Z,2.97
2018-07-14T23:08:58.436Z,3.10
2018-07-14T23:11:26.369Z,3.43
2018-07-14T23:13:54.321Z,3.43
2018-07-14T23:16:22.257Z,3.70
2018-07-14T23:18:50.177Z,3.20
2018-07-14T23:21:18.137Z,3.30
2018-07-14T23:23:46.053Z,3.30
2018-07-14T23:26:14.002Z,3.20
2018-07-14T23:28:42.102Z,4.00
2018-07-14T23:31:10.005Z,4.50
2018-07-14T23:33:38.192Z,4.47
2018-07-14T23:36:06.465Z,4.30
2018-07-14T23:38:34.537Z,3.80
2018-07-14T23:41:02.608Z,3.60
2018-07-14T23:43:30.569Z,3.73
2018-07-14T23:45:58.549Z,3.77
2018-07-14T23:48:26.489Z,3.80
2018-07-14T23:50:54.536Z,4.23
2018-07-14T23:53:22.452Z,4.30
2018-07-14T23:55:50.426Z,4.40
2018-07-14T23:58:18.373Z,4.30
